Calexico, California
Current Conditions -  °F | °C
As of 8:53 PM on Sunday 19 Oct 2014 (Local Time) from KIPL Reporting Station
Clear Clear  
Wind Chill: 78°   Ceiling: Unl
Heat Index: 79°   Visibility: 10mi
Dew Point: 51°   Wind: 5mph
Humidity: 39%   Direction: 220°SW
Pressure: 29.74"   Gusts: NA
Location:  32.68°N, 115.49°W
Report Text: KIPL 200353Z AUTO 22004KT 10SM CLR 26/11 A2974 RMK AO2 SLP072 T02560106
Loading
Personal Weather Stations






























Interactive Weather Map
Tropical Storm Tracking
New forecast layout! Learn more

10-Day Weather Forecast

Advertisements
Track Severe Weather on mobile